METAR Data
IDs: Format: Raw Decoded Include TAF

Data at: 2057 UTC 08 Aug 2020

KINW 081956Z AUTO 12004KT 10SM FEW100 FEW120 32/08 A3017 RMK AO2 RAE18 TSE15 SLP134 P0000 T03170083
KINW 081921Z AUTO VRB05KT 10SM FEW032 FEW090 SCT110 31/09 A3018 RMK AO2 LTG DSNT NE AND SE RAE18 TSE15 P0000 T03060089
KINW 081906Z AUTO 11014G21KT 10SM -TSRA FEW042 BKN100 OVC110 28/12 A3019 RMK AO2 P0000 T02780117
KINW 081756Z AUTO VRB04KT 10SM CLR 32/07 A3020 RMK AO2 SLP138 T03220067 10322 20167 58015
KINW 081656Z AUTO 08006KT 10SM CLR 30/06 A3023 RMK AO2 SLP150 T03000056
KINW 081556Z AUTO 10005KT 10SM CLR 27/04 A3024 RMK AO2 SLP155 T02720039
KINW 081456Z AUTO 10006KT 10SM CLR 23/03 A3025 RMK AO2 SLP164 T02280028 51014
KINW 081356Z AUTO 10006KT 10SM CLR 20/01 A3024 RMK AO2 SLP157 T02000011
KINW 081256Z AUTO 12008KT 10SM CLR 18/01 A3022 RMK AO2 SLP155 T01780011
KINW 081156Z AUTO 13004KT 10SM SCT110 18/03 A3020 RMK AO2 SLP143 T01780033 10239 20167 51010
KINW 081056Z AUTO 14003KT 10SM CLR 17/02 A3019 RMK AO2 SLP139 T01720017
KINW 080956Z AUTO 00000KT 10SM CLR 19/03 A3018 RMK AO2 SLP134 T01890028
KINW 080856Z AUTO 25005KT 10SM CLR 21/04 A3017 RMK AO2 SLP127 T02110039 50001
KINW 080756Z AUTO 00000KT 10SM CLR 20/02 A3017 RMK AO2 SLP132 T02000022
KINW 080656Z AUTO 20010KT 10SM CLR 22/02 A3017 RMK AO2 SLP127 T02170022 403610150
KINW 080556Z AUTO 21008KT 10SM CLR 24/02 A3017 RMK AO2 SLP125 T02390022 10350 20233 51016
KINW 080456Z AUTO 22008KT 10SM CLR 24/01 A3015 RMK AO2 SLP124 T02390011
KINW 080356Z AUTO 23010KT 10SM CLR 27/02 A3014 RMK AO2 SLP121 T02670017
KINW 080256Z AUTO 23010KT 10SM CLR 28/02 A3011 RMK AO2 SLP116 T02830017 53009
KINW 080156Z AUTO 23013KT 10SM CLR 32/02 A3010 RMK AO2 SLP112 T03170017
KINW 080056Z AUTO 22014G20KT 10SM CLR 33/M01 A3009 RMK AO2 SLP107 T03331011
KINW 072356Z AUTO 21012G19KT 10SM CLR 35/M02 A3008 RMK AO2 PK WND 23027/2321 WSHFT 2317 SLP106 T03501017 10361 20328 56007
KINW 072337Z AUTO 26011G20KT 10SM CLR 34/M02 A3008 RMK AO2 PK WND 23027/2321 WSHFT 2317 T03441017
KINW 072256Z AUTO 23020G24KT 10SM CLR 36/M01 A3009 RMK AO2 PK WND 24026/2239 SLP105 T03561011
KINW 072156Z AUTO 24016G27KT 10SM CLR 36/M01 A3010 RMK AO2 PK WND 22029/2132 SLP105 T03561006
KINW 072056Z AUTO 23020G31KT 10SM CLR 36/M01 A3011 RMK AO2 PK WND 23031/2047 WSHFT 2023 SLP110 T03561006 56006
KINW 072043Z AUTO 26014G22KT 10SM CLR 36/M01 A3011 RMK AO2 WSHFT 2023 T03611006
KINW 071956Z AUTO 21008G20KT 10SM CLR 34/M01 A3012 RMK AO2 WSHFT 1933 SLP118 T03441006
KINW 071953Z AUTO 21008G20KT 160V230 10SM CLR 35/M01 A3012 RMK AO2 WSHFT 1933
KINW 071856Z AUTO 24013G20KT 10SM CLR 36/00 A3013 RMK AO2 SLP113 T03560000
KINW 071756Z AUTO 24015G22KT 10SM CLR 33/01 A3014 RMK AO2 SLP122 T03330011 10333 20150 58007
KINW 071656Z AUTO 13008KT 10SM CLR 30/04 A3016 RMK AO2 SLP129 T03000039
KINW 071556Z AUTO 11008KT 10SM CLR 27/01 A3016 RMK AO2 SLP135 T02670011
KINW 071456Z AUTO 12008KT 10SM CLR 22/01 A3017 RMK AO2 SLP137 T02220006 52015
KINW 071356Z AUTO 10006KT 10SM CLR 18/M01 A3015 RMK AO2 SLP133 T01781011
KINW 071256Z AUTO 13008KT 10SM CLR 17/M01 A3013 RMK AO2 SLP125 T01721011
KINW 071156Z AUTO 00000KT 10SM CLR 16/M02 A3012 RMK AO2 SLP118 T01611022 10211 20150 53008
KINW 071056Z AUTO 11008KT 10SM CLR 17/M02 A3011 RMK AO2 SLP112 T01671017
KINW 070956Z AUTO 22008KT 10SM CLR 18/M02 A3009 RMK AO2 SLP102 T01831017